Time;durP1;ratioP1;P1;durP2;ratioP2;P2;SDS_P1;SDS_P2;PMS_P1;PMS_P2;Temp;Humidity;BMP_temperature;BMP_pressure;BME280_temperature;BME280_humidity;BME280_pressure;Samples;Min_cycle;Max_cycle;Signal;HPM_P1;HPM_P2
2023/05/12 00:01:02;;;;;;;8.47;6.50;;;15.40;99.90;;;;;;5024335;28;20737;-65
2023/05/12 00:03:28;;;;;;;8.23;7.03;;;15.40;99.90;;;;;;5018471;28;20184;-65
2023/05/12 00:05:53;;;;;;;9.30;7.17;;;15.40;99.90;;;;;;5019587;28;20227;-65
2023/05/12 00:08:19;;;;;;;8.70;6.63;;;15.40;99.90;;;;;;5015328;28;20686;-65
2023/05/12 00:10:44;;;;;;;7.67;6.80;;;15.40;99.90;;;;;;5018812;28;20192;-65
2023/05/12 00:13:10;;;;;;;8.00;6.80;;;15.40;99.90;;;;;;5018818;28;20569;-65
2023/05/12 00:15:36;;;;;;;8.43;7.43;;;15.40;99.90;;;;;;5016069;28;20758;-65
2023/05/12 00:18:02;;;;;;;8.00;7.23;;;15.30;99.90;;;;;;5014507;28;20254;-65
2023/05/12 00:20:27;;;;;;;8.27;7.33;;;15.30;99.90;;;;;;5018480;28;20936;-65
2023/05/12 00:22:53;;;;;;;9.70;7.63;;;15.30;99.90;;;;;;5022933;28;20235;-65
2023/05/12 00:25:18;;;;;;;8.80;7.70;;;15.20;99.90;;;;;;5017776;28;20196;-65
2023/05/12 00:27:44;;;;;;;7.20;6.50;;;15.20;99.90;;;;;;5019269;28;20184;-65
2023/05/12 00:30:10;;;;;;;8.10;7.30;;;15.20;99.90;;;;;;5022118;28;20192;-65
2023/05/12 00:32:36;;;;;;;8.60;6.83;;;15.20;99.90;;;;;;5018812;28;21590;-65
2023/05/12 00:35:01;;;;;;;9.47;8.10;;;15.20;99.90;;;;;;5018087;28;20440;-65
2023/05/12 00:37:27;;;;;;;8.50;7.43;;;15.20;99.90;;;;;;5019746;28;20198;-65
2023/05/12 00:39:52;;;;;;;7.87;6.80;;;15.20;99.90;;;;;;5018080;28;20205;-65
2023/05/12 00:42:18;;;;;;;9.90;8.10;;;15.20;99.90;;;;;;5021978;28;20317;-65
2023/05/12 00:44:44;;;;;;;10.43;9.33;;;15.20;99.90;;;;;;5018730;28;20702;-65
2023/05/12 00:47:11;;;;;;;10.10;7.40;;;15.20;99.90;;;;;;5013963;28;20188;-65
2023/05/12 00:49:41;;;;;;;9.93;8.93;;;15.20;99.90;;;;;;5015481;28;20201;-65
2023/05/12 00:52:07;;;;;;;10.13;9.13;;;15.20;99.90;;;;;;5020443;28;20453;-65
2023/05/12 00:54:34;;;;;;;9.07;7.30;;;15.20;99.90;;;;;;5015899;28;20443;-65
2023/05/12 00:56:59;;;;;;;9.03;7.80;;;15.20;99.90;;;;;;5015157;28;20823;-65
2023/05/12 00:59:25;;;;;;;8.77;7.97;;;15.20;99.90;;;;;;5022375;28;20463;-65
2023/05/12 01:01:51;;;;;;;9.50;8.10;;;15.20;99.90;;;;;;5014437;28;20219;-65
2023/05/12 01:04:17;;;;;;;8.73;7.83;;;15.20;99.90;;;;;;5012881;28;20436;-65
2023/05/12 01:06:48;;;;;;;9.30;7.93;;;15.20;99.90;;;;;;5021662;28;20615;-65
2023/05/12 01:09:14;;;;;;;9.17;7.40;;;15.20;99.90;;;;;;5017384;28;20200;-65
2023/05/12 01:11:40;;;;;;;7.83;7.03;;;15.20;99.90;;;;;;5016194;28;20447;-66
2023/05/12 01:14:05;;;;;;;9.20;7.90;;;15.20;99.90;;;;;;5018408;28;20920;-66
2023/05/12 01:16:38;;;;;;;10.13;8.53;;;15.20;99.90;;;;;;5017816;28;20195;-65
2023/05/12 01:19:06;;;;;;;10.27;8.60;;;15.20;99.90;;;;;;5020765;28;20197;-65
2023/05/12 01:21:32;;;;;;;8.70;7.63;;;15.20;99.90;;;;;;5013858;28;20484;-65
2023/05/12 01:24:01;;;;;;;8.77;7.70;;;15.20;99.90;;;;;;5017977;28;20941;-66
2023/05/12 01:26:28;;;;;;;8.37;7.13;;;15.10;99.90;;;;;;5018479;28;20184;-66
2023/05/12 01:28:55;;;;;;;10.47;9.47;;;15.10;99.90;;;;;;5014352;28;22377;-66
2023/05/12 01:31:22;;;;;;;9.60;7.93;;;15.10;99.90;;;;;;5021346;28;20447;-66
2023/05/12 01:33:48;;;;;;;13.70;9.13;;;15.10;99.90;;;;;;5019196;28;20961;-66
2023/05/12 01:36:13;;;;;;;10.27;9.17;;;15.10;99.90;;;;;;5014402;28;20443;-66
2023/05/12 01:38:39;;;;;;;13.13;9.93;;;15.10;99.90;;;;;;5016235;28;20212;-64
2023/05/12 01:41:04;;;;;;;12.73;10.77;;;15.10;99.90;;;;;;5017770;28;20534;-64
2023/05/12 01:43:30;;;;;;;14.70;10.77;;;15.10;99.90;;;;;;5014634;28;20169;-64
2023/05/12 01:45:55;;;;;;;11.67;10.40;;;15.10;99.90;;;;;;5020153;28;20217;-64
2023/05/12 01:48:21;;;;;;;13.40;12.00;;;15.10;99.90;;;;;;5013267;28;20682;-64
2023/05/12 01:50:46;;;;;;;13.23;11.40;;;15.10;99.90;;;;;;5019017;28;20197;-64
2023/05/12 01:53:12;;;;;;;13.60;11.87;;;15.10;99.90;;;;;;5015652;28;20189;-64
2023/05/12 01:55:38;;;;;;;14.37;11.33;;;15.10;99.90;;;;;;5019520;28;20188;-64
2023/05/12 01:58:04;;;;;;;12.27;10.43;;;15.10;99.90;;;;;;5014118;28;20277;-64
2023/05/12 02:00:29;;;;;;;14.13;10.80;;;15.10;99.90;;;;;;5015521;28;20863;-64
2023/05/12 02:02:55;;;;;;;11.47;10.27;;;15.10;99.90;;;;;;5019875;28;20830;-65
2023/05/12 02:05:21;;;;;;;13.80;11.40;;;15.10;99.90;;;;;;5021852;28;20181;-65
2023/05/12 02:07:46;;;;;;;11.97;10.67;;;15.10;99.90;;;;;;5015939;28;20188;-65
2023/05/12 02:10:12;;;;;;;13.50;10.27;;;15.10;99.90;;;;;;5017377;28;21488;-65
2023/05/12 02:12:38;;;;;;;11.70;10.50;;;15.10;99.90;;;;;;5020298;28;20449;-66
2023/05/12 02:15:04;;;;;;;14.20;11.10;;;15.00;99.90;;;;;;5021495;28;20234;-65
2023/05/12 02:17:29;;;;;;;11.63;9.70;;;15.00;99.90;;;;;;5013298;28;20923;-65
2023/05/12 02:19:55;;;;;;;11.07;9.97;;;15.00;99.90;;;;;;5016303;28;20482;-65
2023/05/12 02:22:20;;;;;;;12.93;10.80;;;15.00;99.90;;;;;;5013436;28;20221;-65
2023/05/12 02:24:46;;;;;;;12.00;10.30;;;15.00;99.90;;;;;;5020695;28;20192;-65
2023/05/12 02:27:11;;;;;;;11.73;9.93;;;15.00;99.90;;;;;;5016724;28;20189;-65
2023/05/12 02:29:37;;;;;;;11.90;10.20;;;15.00;99.90;;;;;;5019915;28;20209;-65
2023/05/12 02:32:03;;;;;;;10.83;9.30;;;15.10;99.90;;;;;;5017428;28;20181;-65
2023/05/12 02:34:29;;;;;;;11.97;10.37;;;15.00;99.90;;;;;;5017839;28;20317;-65
2023/05/12 02:36:55;;;;;;;12.53;10.23;;;15.00;99.90;;;;;;5018699;28;20475;-65
2023/05/12 02:39:20;;;;;;;12.67;10.20;;;15.00;99.90;;;;;;5015466;28;20216;-65
2023/05/12 02:41:46;;;;;;;11.70;10.10;;;15.00;99.90;;;;;;5018836;28;20228;-65
2023/05/12 02:44:11;;;;;;;12.70;10.60;;;15.00;99.90;;;;;;5013638;28;20184;-65
2023/05/12 02:46:37;;;;;;;11.67;9.60;;;15.00;99.90;;;;;;5016571;28;20216;-65
2023/05/12 02:49:03;;;;;;;11.27;10.07;;;15.00;99.90;;;;;;5023458;28;20205;-65
2023/05/12 02:51:30;;;;;;;11.37;10.00;;;15.00;99.90;;;;;;5013629;28;20182;-65
2023/05/12 02:53:56;;;;;;;12.93;11.20;;;15.00;99.90;;;;;;5013796;28;20180;-65
2023/05/12 02:56:21;;;;;;;11.93;9.10;;;15.00;99.90;;;;;;5018740;28;20526;-65
2023/05/12 02:58:47;;;;;;;12.13;10.83;;;15.00;99.90;;;;;;5019873;28;20216;-65
2023/05/12 03:01:13;;;;;;;11.87;10.67;;;15.00;99.90;;;;;;5019278;28;20639;-65
2023/05/12 03:03:39;;;;;;;10.03;9.00;;;15.00;99.90;;;;;;5020797;28;20687;-65
2023/05/12 03:06:05;;;;;;;12.07;10.77;;;15.00;99.90;;;;;;5023688;28;20458;-65
2023/05/12 03:08:30;;;;;;;13.20;10.17;;;15.00;99.90;;;;;;5013303;28;20207;-65
2023/05/12 03:10:56;;;;;;;12.07;10.67;;;15.00;99.90;;;;;;5017905;28;21612;-65
2023/05/12 03:13:22;;;;;;;12.17;10.50;;;15.00;99.90;;;;;;5024545;28;20603;-65
2023/05/12 03:15:47;;;;;;;12.53;10.63;;;15.00;99.90;;;;;;5020571;28;20181;-65
2023/05/12 03:18:13;;;;;;;12.10;10.90;;;14.90;99.90;;;;;;5021406;28;20274;-65
2023/05/12 03:20:38;;;;;;;10.63;9.53;;;14.90;99.90;;;;;;5010331;28;20204;-65
2023/05/12 03:23:04;;;;;;;10.60;9.50;;;14.90;99.90;;;;;;5018289;28;20185;-65
2023/05/12 03:25:30;;;;;;;11.20;10.10;;;14.90;99.90;;;;;;5018720;28;20191;-65
2023/05/12 03:27:55;;;;;;;11.43;10.27;;;14.90;99.90;;;;;;5021144;28;20200;-65
2023/05/12 03:30:21;;;;;;;12.23;10.40;;;14.90;99.90;;;;;;5012266;28;20185;-65
2023/05/12 03:32:46;;;;;;;16.77;11.40;;;14.90;99.90;;;;;;5021011;28;20229;-65
2023/05/12 03:35:12;;;;;;;11.63;10.43;;;14.90;99.90;;;;;;5025217;28;20693;-65
2023/05/12 03:37:37;;;;;;;13.97;11.00;;;14.90;99.90;;;;;;5019948;28;20851;-65
2023/05/12 03:40:03;;;;;;;16.87;11.23;;;14.90;99.90;;;;;;5018895;28;20191;-65
2023/05/12 03:42:29;;;;;;;11.10;9.87;;;14.90;99.90;;;;;;5028385;28;20261;-65
2023/05/12 03:44:55;;;;;;;11.57;10.47;;;14.90;99.90;;;;;;5017586;28;20863;-65
2023/05/12 03:47:20;;;;;;;12.83;10.57;;;14.90;99.90;;;;;;5014583;28;20638;-65
2023/05/12 03:49:46;;;;;;;15.47;12.40;;;14.90;99.90;;;;;;5024618;28;20292;-65
2023/05/12 03:52:11;;;;;;;13.30;11.60;;;14.90;99.90;;;;;;5019483;28;20627;-65
2023/05/12 03:54:37;;;;;;;15.27;11.97;;;14.90;99.90;;;;;;5013751;28;20673;-65
2023/05/12 03:57:02;;;;;;;11.50;10.30;;;14.90;99.90;;;;;;5019520;28;20223;-65
2023/05/12 03:59:31;;;;;;;12.10;10.80;;;14.90;99.90;;;;;;5022609;28;20639;-65
2023/05/12 04:01:57;;;;;;;11.00;8.70;;;14.90;99.90;;;;;;5021559;28;20228;-65
2023/05/12 04:04:23;;;;;;;13.07;8.90;;;14.90;99.90;;;;;;5021259;28;20443;-65
2023/05/12 04:06:48;;;;;;;9.73;8.70;;;14.80;99.90;;;;;;5018646;28;20432;-65
2023/05/12 04:09:15;;;;;;;10.23;8.40;;;14.90;99.90;;;;;;5018933;28;20996;-65
2023/05/12 04:11:41;;;;;;;9.00;8.10;;;14.90;99.90;;;;;;5021689;28;20226;-65
2023/05/12 04:14:06;;;;;;;9.20;8.23;;;14.90;99.90;;;;;;5023098;28;20933;-64
2023/05/12 04:16:34;;;;;;;9.87;8.87;;;14.90;99.90;;;;;;5017573;28;20445;-65
2023/05/12 04:19:02;;;;;;;12.40;8.30;;;14.90;99.90;;;;;;5018596;28;20200;-65
2023/05/12 04:21:28;;;;;;;9.57;7.60;;;14.90;99.90;;;;;;5047995;28;20475;-64
2023/05/12 04:23:54;;;;;;;9.00;7.20;;;15.00;99.90;;;;;;5018870;28;20449;-64
2023/05/12 04:26:20;;;;;;;8.30;7.43;;;14.90;99.90;;;;;;5016277;28;20199;-64
2023/05/12 04:28:46;;;;;;;10.57;8.13;;;15.00;99.90;;;;;;5018734;28;20206;-66
2023/05/12 04:31:12;;;;;;;8.63;7.67;;;15.00;99.90;;;;;;5021012;28;20435;-66
2023/05/12 04:33:37;;;;;;;7.77;6.97;;;15.00;99.90;;;;;;5018290;28;20696;-65
2023/05/12 04:36:04;;;;;;;7.80;7.00;;;15.00;99.90;;;;;;5016097;28;20200;-65
2023/05/12 04:38:30;;;;;;;7.00;6.23;;;15.00;99.90;;;;;;5018749;28;20224;-65
2023/05/12 04:40:59;;;;;;;8.23;6.80;;;15.00;99.90;;;;;;5020408;28;21350;-65
2023/05/12 04:43:25;;;;;;;7.93;7.07;;;15.00;99.90;;;;;;5019908;28;20190;-65
2023/05/12 04:45:53;;;;;;;7.80;6.97;;;15.00;99.90;;;;;;5020610;28;20441;-65
2023/05/12 04:48:18;;;;;;;7.80;7.00;;;15.00;99.90;;;;;;5017233;28;20865;-65
2023/05/12 04:50:44;;;;;;;7.90;7.10;;;15.00;99.90;;;;;;5023372;28;20496;-65
2023/05/12 04:53:10;;;;;;;11.10;6.93;;;15.10;99.90;;;;;;5018805;28;20181;-65
2023/05/12 04:55:36;;;;;;;7.30;6.60;;;15.10;99.90;;;;;;5017943;28;20304;-65
2023/05/12 04:58:02;;;;;;;7.00;6.20;;;15.10;99.90;;;;;;5017184;28;20491;-65
2023/05/12 05:00:28;;;;;;;7.20;6.50;;;15.10;99.90;;;;;;5018261;28;20944;-65
2023/05/12 05:02:53;;;;;;;8.13;6.80;;;15.10;99.90;;;;;;5015532;28;20220;-65
2023/05/12 05:05:19;;;;;;;8.13;6.80;;;15.10;99.90;;;;;;5011354;28;20181;-65
2023/05/12 05:07:44;;;;;;;8.30;7.47;;;15.10;99.90;;;;;;5013790;28;20276;-65
2023/05/12 05:10:10;;;;;;;6.90;6.20;;;15.20;99.90;;;;;;5016390;28;20185;-65
2023/05/12 05:12:35;;;;;;;7.60;6.57;;;15.20;99.90;;;;;;5025205;28;20203;-65
2023/05/12 05:15:01;;;;;;;8.53;6.40;;;15.20;99.90;;;;;;5018123;28;20209;-64
2023/05/12 05:17:27;;;;;;;6.30;5.70;;;15.20;99.90;;;;;;5018721;28;20189;-64
2023/05/12 05:19:52;;;;;;;7.37;6.20;;;15.20;99.90;;;;;;5013794;28;20212;-64
2023/05/12 05:22:18;;;;;;;7.30;6.70;;;15.20;99.90;;;;;;5019377;28;20209;-66
2023/05/12 05:24:44;;;;;;;7.70;6.90;;;15.20;99.90;;;;;;5014682;28;20185;-65
2023/05/12 05:27:09;;;;;;;8.07;6.70;;;15.30;99.90;;;;;;5012484;28;20662;-64
2023/05/12 05:29:35;;;;;;;6.73;6.13;;;15.30;99.90;;;;;;5014345;28;20261;-64
2023/05/12 05:32:00;;;;;;;9.23;7.63;;;15.30;99.90;;;;;;5019211;28;20181;-64
2023/05/12 05:34:26;;;;;;;8.33;6.73;;;15.30;99.90;;;;;;5018056;28;20653;-64
2023/05/12 05:36:51;;;;;;;7.30;6.60;;;15.40;99.90;;;;;;5020525;28;20203;-64
2023/05/12 05:39:17;;;;;;;7.30;6.37;;;15.40;99.90;;;;;;5016956;28;20677;-64
2023/05/12 05:41:42;;;;;;;6.70;6.07;;;15.50;99.90;;;;;;5019852;28;20597;-65
2023/05/12 05:44:08;;;;;;;8.90;5.80;;;15.50;99.90;;;;;;5018826;28;20293;-64
2023/05/12 05:46:33;;;;;;;5.93;5.43;;;15.50;99.90;;;;;;5016269;28;20647;-65
2023/05/12 05:48:59;;;;;;;5.57;5.07;;;15.60;99.90;;;;;;5018511;28;20208;-64
2023/05/12 05:51:24;;;;;;;7.07;6.07;;;15.60;99.90;;;;;;5019894;28;20196;-64
2023/05/12 05:53:50;;;;;;;7.43;6.60;;;15.60;99.90;;;;;;5023884;28;20192;-64
2023/05/12 05:56:15;;;;;;;5.80;5.30;;;15.70;99.90;;;;;;5015546;28;20188;-64
2023/05/12 05:58:41;;;;;;;6.47;5.70;;;15.70;99.90;;;;;;5011399;28;20646;-65
2023/05/12 06:01:07;;;;;;;5.83;5.27;;;15.70;99.90;;;;;;5019861;28;20212;-65
2023/05/12 06:03:32;;;;;;;4.90;4.30;;;15.70;99.90;;;;;;5011062;28;20185;-64
2023/05/12 06:05:58;;;;;;;5.30;4.80;;;15.70;99.90;;;;;;5017889;28;20180;-65
2023/05/12 06:08:24;;;;;;;6.00;5.40;;;15.80;99.90;;;;;;5009413;28;20216;-65
2023/05/12 06:10:49;;;;;;;4.80;4.40;;;15.80;99.90;;;;;;5015066;28;20680;-64
2023/05/12 06:13:15;;;;;;;5.17;4.50;;;15.90;99.90;;;;;;5014092;28;20328;-65
2023/05/12 06:15:40;;;;;;;11.70;6.60;;;16.00;99.90;;;;;;5014753;28;20184;-65
2023/05/12 06:18:06;;;;;;;6.00;5.40;;;16.00;99.90;;;;;;5019268;28;20211;-65
2023/05/12 06:20:32;;;;;;;4.43;4.03;;;16.10;99.90;;;;;;5009273;28;21015;-65
2023/05/12 06:22:57;;;;;;;4.73;3.87;;;16.10;99.90;;;;;;5017613;28;20212;-65
2023/05/12 06:25:23;;;;;;;3.80;3.47;;;16.20;99.90;;;;;;5017640;28;20685;-65
2023/05/12 06:27:51;;;;;;;3.80;3.40;;;16.20;99.90;;;;;;5021298;28;20229;-65
2023/05/12 06:30:17;;;;;;;3.80;3.40;;;16.20;99.90;;;;;;5014769;28;20303;-64
2023/05/12 06:32:42;;;;;;;5.60;3.70;;;16.30;99.90;;;;;;5008575;28;20581;-64
2023/05/12 06:35:08;;;;;;;4.00;3.60;;;16.30;99.90;;;;;;5017360;28;20308;-65
2023/05/12 06:37:34;;;;;;;4.33;3.70;;;16.40;99.90;;;;;;5018426;28;20705;-65
2023/05/12 06:39:59;;;;;;;4.30;3.50;;;16.50;99.90;;;;;;5018044;28;20791;-64
2023/05/12 06:42:25;;;;;;;4.00;3.40;;;16.50;99.90;;;;;;5019557;28;20209;-65
2023/05/12 06:44:51;;;;;;;4.90;4.30;;;16.50;99.90;;;;;;5015370;28;20297;-65
2023/05/12 06:47:16;;;;;;;5.40;4.73;;;16.50;99.90;;;;;;5012718;28;20180;-65
2023/05/12 06:49:42;;;;;;;4.30;3.90;;;16.60;99.90;;;;;;5007953;28;20288;-65
2023/05/12 06:52:07;;;;;;;4.70;4.30;;;16.60;99.90;;;;;;5009520;28;20192;-65
2023/05/12 06:54:33;;;;;;;7.27;4.60;;;16.60;99.90;;;;;;5008140;28;20679;-65
2023/05/12 06:56:59;;;;;;;5.20;4.70;;;16.70;99.90;;;;;;5008796;28;20181;-65
2023/05/12 06:59:24;;;;;;;7.00;4.93;;;16.70;99.90;;;;;;5012285;28;20875;-65
2023/05/12 07:01:50;;;;;;;6.07;5.47;;;16.80;99.90;;;;;;5014409;28;20210;-65
2023/05/12 07:04:16;;;;;;;8.90;7.80;;;16.80;99.90;;;;;;5015236;28;20196;-64
2023/05/12 07:06:41;;;;;;;6.50;5.87;;;16.90;99.90;;;;;;5003354;28;20278;-64
2023/05/12 07:09:07;;;;;;;10.00;8.60;;;17.00;99.90;;;;;;5010428;28;20205;-65
2023/05/12 07:11:32;;;;;;;6.63;5.50;;;17.00;99.90;;;;;;5016928;28;20237;-65
2023/05/12 07:13:59;;;;;;;6.17;5.53;;;17.10;99.90;;;;;;5012227;28;20721;-65
2023/05/12 07:16:24;;;;;;;6.70;6.00;;;17.10;99.90;;;;;;5010403;28;20249;-66
2023/05/12 07:18:50;;;;;;;7.00;5.90;;;17.10;99.90;;;;;;5014125;28;20478;-66
2023/05/12 07:21:16;;;;;;;5.80;5.10;;;17.20;99.90;;;;;;5015412;28;20221;-66
2023/05/12 07:23:41;;;;;;;5.67;5.17;;;17.30;99.90;;;;;;5010525;28;20903;-66
2023/05/12 07:26:07;;;;;;;6.57;5.37;;;17.30;99.90;;;;;;5011779;28;20623;-66
2023/05/12 07:28:35;;;;;;;5.53;5.03;;;17.40;99.90;;;;;;5014104;28;20839;-66
2023/05/12 07:31:08;;;;;;;5.93;5.00;;;17.40;99.90;;;;;;5009672;28;20211;-66
2023/05/12 07:33:36;;;;;;;6.63;5.97;;;17.50;99.90;;;;;;5019925;28;20462;-66
2023/05/12 07:36:03;;;;;;;9.60;8.60;;;17.50;99.90;;;;;;5019203;28;20494;-66
2023/05/12 07:38:29;;;;;;;6.50;5.90;;;17.60;99.90;;;;;;5015051;28;20456;-67
2023/05/12 07:40:54;;;;;;;8.60;5.63;;;17.70;99.90;;;;;;5021307;28;20481;-65
2023/05/12 07:43:20;;;;;;;12.13;5.07;;;17.70;99.90;;;;;;5021036;28;20187;-65
2023/05/12 07:45:45;;;;;;;5.93;5.33;;;17.80;99.90;;;;;;5024886;28;20210;-65
2023/05/12 07:48:11;;;;;;;6.00;5.50;;;17.80;99.90;;;;;;5023806;28;20212;-65
2023/05/12 07:50:37;;;;;;;6.70;6.03;;;17.90;99.90;;;;;;5025831;28;20234;-65
2023/05/12 07:53:04;;;;;;;7.43;6.73;;;18.00;99.90;;;;;;5009677;28;20438;-66
2023/05/12 07:55:30;;;;;;;7.70;4.97;;;18.00;99.90;;;;;;5022228;28;20188;-66
2023/05/12 07:57:56;;;;;;;6.20;5.60;;;18.10;99.90;;;;;;5019647;28;20446;-66
2023/05/12 08:00:21;;;;;;;8.90;5.47;;;18.10;99.90;;;;;;5023918;28;20430;-66
2023/05/12 08:02:47;;;;;;;7.93;7.13;;;18.20;99.90;;;;;;5018538;28;20224;-66
2023/05/12 08:05:12;;;;;;;6.70;6.10;;;18.20;99.90;;;;;;5023996;28;20180;-66
2023/05/12 08:08:16;;;;;;;6.40;5.80;;;18.30;99.90;;;;;;5018050;28;20185;-66
2023/05/12 08:10:43;;;;;;;6.50;5.80;;;18.30;99.90;;;;;;5012628;28;20208;-67
2023/05/12 08:13:08;;;;;;;6.97;6.27;;;18.40;99.90;;;;;;5024478;28;20419;-66
2023/05/12 08:15:34;;;;;;;6.67;5.97;;;18.40;99.90;;;;;;5016656;28;20602;-65
2023/05/12 08:18:00;;;;;;;6.37;5.77;;;18.40;99.90;;;;;;5021661;28;20215;-66
2023/05/12 08:20:25;;;;;;;6.10;5.50;;;18.50;99.90;;;;;;5016082;28;20200;-66
2023/05/12 08:22:51;;;;;;;6.40;5.80;;;18.50;99.90;;;;;;5022470;28;20223;-66
2023/05/12 08:25:17;;;;;;;6.17;5.57;;;18.50;99.90;;;;;;5016746;28;20217;-66
2023/05/12 08:27:42;;;;;;;6.70;5.27;;;18.60;99.90;;;;;;5022879;28;20184;-66
2023/05/12 08:30:08;;;;;;;6.63;5.47;;;18.60;99.90;;;;;;5028639;28;20204;-66
2023/05/12 08:32:34;;;;;;;6.03;5.43;;;18.50;99.90;;;;;;5025339;28;20266;-66
2023/05/12 08:35:00;;;;;;;6.20;5.60;;;18.40;99.90;;;;;;5015298;28;20494;-67
2023/05/12 08:37:26;;;;;;;8.30;5.83;;;18.40;99.90;;;;;;5018840;28;20436;-66
2023/05/12 08:39:52;;;;;;;7.87;5.90;;;18.40;99.90;;;;;;5018413;28;20489;-66
2023/05/12 08:42:42;;;;;;;6.33;5.73;;;18.40;99.90;;;;;;5016734;28;20251;-65
2023/05/12 08:45:12;;;;;;;7.70;6.30;;;18.40;99.90;;;;;;5020731;28;20272;-66
2023/05/12 08:47:37;;;;;;;7.50;5.80;;;18.40;99.90;;;;;;5007084;28;20527;-67
2023/05/12 08:50:04;;;;;;;7.40;5.40;;;18.50;99.90;;;;;;5025327;28;20506;-67
2023/05/12 08:52:34;;;;;;;6.30;5.70;;;18.50;99.90;;;;;;5020140;28;20180;-67
2023/05/12 08:55:01;;;;;;;6.57;5.90;;;18.60;99.90;;;;;;5017205;28;20886;-67
2023/05/12 08:57:26;;;;;;;6.17;5.57;;;18.60;99.90;;;;;;5023388;28;20467;-66
2023/05/12 08:59:54;;;;;;;6.20;5.37;;;18.60;99.90;;;;;;5021535;28;20892;-66
2023/05/12 09:02:21;;;;;;;7.30;6.57;;;18.60;99.90;;;;;;5013884;28;20223;-67
2023/05/12 09:04:47;;;;;;;8.00;6.07;;;18.60;99.90;;;;;;5025419;28;20445;-67
2023/05/12 09:07:14;;;;;;;8.47;5.97;;;18.60;99.90;;;;;;5018564;28;20439;-67
2023/05/12 09:09:44;;;;;;;6.23;5.63;;;18.70;99.90;;;;;;5013496;28;20458;-66
2023/05/12 09:12:13;;;;;;;5.70;5.10;;;18.70;99.90;;;;;;5013974;28;20532;-66
2023/05/12 09:14:40;;;;;;;5.80;4.57;;;18.70;99.90;;;;;;5009824;28;20446;-65
2023/05/12 09:17:06;;;;;;;5.50;5.00;;;18.70;99.90;;;;;;5017587;28;20439;-65
2023/05/12 09:19:33;;;;;;;5.00;4.40;;;18.70;99.90;;;;;;5017272;28;20799;-65
2023/05/12 09:21:59;;;;;;;5.37;4.53;;;18.80;99.90;;;;;;5019309;28;20200;-65
2023/05/12 09:24:39;;;;;;;4.83;4.43;;;18.80;99.90;;;;;;5015461;28;20530;-65
2023/05/12 09:27:05;;;;;;;5.30;4.80;;;18.80;99.90;;;;;;5014559;28;20441;-65
2023/05/12 09:29:32;;;;;;;5.93;5.10;;;18.80;99.90;;;;;;5023095;28;20526;-65
2023/05/12 09:32:00;;;;;;;4.33;3.93;;;18.90;99.90;;;;;;5019552;28;20419;-65
2023/05/12 09:34:34;;;;;;;4.27;3.87;;;19.00;99.90;;;;;;5017857;28;20442;-65
2023/05/12 09:37:03;;;;;;;3.90;3.53;;;19.10;99.90;;;;;;5020754;28;20477;-65
2023/05/12 09:39:29;;;;;;;3.80;3.47;;;19.20;99.90;;;;;;5019254;28;20490;-65
2023/05/12 09:41:55;;;;;;;4.23;3.83;;;19.20;99.90;;;;;;5023535;28;20928;-66
2023/05/12 09:44:22;;;;;;;4.33;3.03;;;19.20;99.90;;;;;;5025756;28;20193;-65
2023/05/12 09:46:48;;;;;;;3.50;3.20;;;19.20;99.90;;;;;;5022832;28;20200;-66
2023/05/12 09:49:21;;;;;;;3.60;2.90;;;19.20;99.90;;;;;;5023671;28;20459;-66
2023/05/12 09:52:00;;;;;;;4.10;2.60;;;19.20;99.90;;;;;;5014357;28;20430;-65
2023/05/12 09:54:30;;;;;;;3.73;2.70;;;19.20;99.90;;;;;;5022603;28;20418;-65
2023/05/12 09:57:07;;;;;;;3.00;2.70;;;19.10;99.90;;;;;;5020887;28;20431;-65
2023/05/12 09:59:34;;;;;;;6.73;3.23;;;19.00;99.90;;;;;;5019656;28;20869;-66
2023/05/12 10:02:04;;;;;;;4.30;3.70;;;18.90;99.90;;;;;;5046872;28;20503;-66
2023/05/12 10:04:38;;;;;;;4.63;4.10;;;18.80;99.90;;;;;;5020626;28;20438;-65
2023/05/12 10:07:06;;;;;;;5.63;4.43;;;18.70;99.90;;;;;;5018978;28;20470;-66
2023/05/12 10:09:34;;;;;;;4.73;3.50;;;18.60;99.90;;;;;;5021978;28;20501;-65
2023/05/12 10:12:03;;;;;;;5.07;4.23;;;18.50;99.90;;;;;;5014016;28;20533;-66
2023/05/12 10:14:30;;;;;;;4.07;3.67;;;18.40;99.90;;;;;;5013647;28;20530;-65
2023/05/12 10:16:57;;;;;;;5.80;4.13;;;18.30;99.90;;;;;;5012413;28;21007;-66
2023/05/12 10:19:24;;;;;;;3.20;2.90;;;18.20;99.90;;;;;;5018593;28;20446;-66
2023/05/12 10:21:50;;;;;;;2.83;2.63;;;18.10;99.90;;;;;;5025381;28;20473;-66
2023/05/12 10:24:17;;;;;;;2.83;2.20;;;18.10;99.90;;;;;;5021177;28;20439;-65
2023/05/12 10:26:43;;;;;;;2.30;2.10;;;18.00;99.90;;;;;;5022106;28;20208;-65
2023/05/12 10:29:10;;;;;;;2.27;2.07;;;18.00;99.90;;;;;;5020332;28;20881;-66
2023/05/12 10:31:37;;;;;;;3.87;2.10;;;17.90;99.90;;;;;;5022063;28;20531;-66
2023/05/12 10:34:03;;;;;;;9.20;2.70;;;17.90;99.90;;;;;;5020088;28;20501;-67
2023/05/12 10:36:29;;;;;;;4.80;2.17;;;17.90;99.90;;;;;;5020147;28;20913;-68
2023/05/12 10:38:55;;;;;;;3.13;2.60;;;18.00;99.90;;;;;;5014926;28;20462;-67
2023/05/12 10:41:31;;;;;;;2.73;2.43;;;18.00;99.90;;;;;;5016531;28;20212;-66
2023/05/12 10:43:57;;;;;;;3.03;2.70;;;18.00;99.90;;;;;;5020454;28;20427;-65
2023/05/12 10:46:25;;;;;;;3.20;2.60;;;18.10;99.90;;;;;;5024784;28;20426;-65
2023/05/12 10:49:01;;;;;;;3.17;2.87;;;18.20;99.90;;;;;;5019552;28;20192;-66
2023/05/12 10:51:31;;;;;;;4.23;2.70;;;18.30;99.90;;;;;;5017309;28;20442;-66
2023/05/12 10:54:06;;;;;;;3.60;3.23;;;18.40;99.90;;;;;;5025336;28;20445;-66
2023/05/12 10:56:38;;;;;;;3.17;2.87;;;18.50;99.90;;;;;;5026355;28;21023;-66
2023/05/12 10:59:30;;;;;;;3.77;3.40;;;18.70;99.90;;;;;;5016284;28;20446;-66
2023/05/12 11:02:00;;;;;;;3.53;3.23;;;18.90;99.90;;;;;;5021191;28;20510;-66
2023/05/12 11:04:35;;;;;;;5.70;4.47;;;19.20;99.90;;;;;;5018500;28;20477;-66
2023/05/12 11:07:00;;;;;;;3.40;3.10;;;19.40;99.90;;;;;;5017818;28;20518;-66
2023/05/12 11:09:26;;;;;;;4.43;3.27;;;19.50;99.90;;;;;;5022872;28;20530;-66
2023/05/12 11:11:51;;;;;;;5.90;4.30;;;19.60;99.90;;;;;;5014213;28;20189;-66
2023/05/12 11:14:17;;;;;;;4.00;3.17;;;19.70;99.90;;;;;;5016194;28;20199;-66
2023/05/12 11:16:43;;;;;;;3.33;2.97;;;19.60;99.90;;;;;;5012689;28;20248;-66
2023/05/12 11:19:09;;;;;;;3.47;3.17;;;19.60;99.90;;;;;;5023454;28;20435;-66
2023/05/12 11:21:35;;;;;;;3.53;3.07;;;19.70;99.90;;;;;;5022143;28;20208;-66
2023/05/12 11:24:01;;;;;;;3.03;2.77;;;19.80;99.90;;;;;;5023527;28;20176;-67
2023/05/12 11:26:28;;;;;;;4.67;3.70;;;19.90;99.90;;;;;;5011234;28;20431;-67
2023/05/12 11:28:56;;;;;;;4.07;3.33;;;20.00;99.90;;;;;;5017890;28;20516;-67
2023/05/12 11:31:22;;;;;;;3.30;3.00;;;20.10;99.90;;;;;;5018744;28;20489;-66
2023/05/12 11:33:48;;;;;;;4.03;3.43;;;20.20;99.90;;;;;;5023250;28;21107;-66
2023/05/12 11:36:19;;;;;;;3.60;3.20;;;20.30;99.90;;;;;;5019486;28;20719;-66
2023/05/12 11:38:50;;;;;;;3.20;2.90;;;20.40;99.90;;;;;;5015797;28;20520;-67
2023/05/12 11:41:22;;;;;;;3.83;3.17;;;20.50;99.90;;;;;;5020680;28;20528;-67
2023/05/12 11:43:47;;;;;;;3.97;3.67;;;20.60;99.90;;;;;;5017066;28;20949;-64
2023/05/12 11:46:26;;;;;;;3.20;2.90;;;20.70;99.90;;;;;;5025158;28;20437;-67
2023/05/12 11:48:56;;;;;;;4.97;3.70;;;20.90;99.90;;;;;;5014329;28;20626;-65
2023/05/12 11:51:23;;;;;;;3.70;3.40;;;21.20;99.90;;;;;;5020750;28;20952;-65
2023/05/12 11:53:49;;;;;;;4.00;3.60;;;21.30;99.90;;;;;;5022579;28;20445;-65
2023/05/12 11:56:22;;;;;;;4.50;4.10;;;21.40;99.90;;;;;;5019685;28;20481;-65
2023/05/12 11:58:53;;;;;;;4.43;3.60;;;21.50;99.90;;;;;;5014836;28;20462;-66
2023/05/12 12:01:18;;;;;;;4.40;4.00;;;21.60;99.90;;;;;;5029322;28;20480;-66
2023/05/12 12:03:48;;;;;;;3.70;3.40;;;21.70;99.90;;;;;;5020342;28;20555;-66
2023/05/12 12:06:15;;;;;;;4.07;3.70;;;21.70;99.90;;;;;;5020421;28;20607;-67
2023/05/12 12:08:54;;;;;;;3.77;3.40;;;21.70;99.90;;;;;;5025511;28;20488;-66
2023/05/12 12:11:21;;;;;;;3.73;3.43;;;21.70;99.90;;;;;;5020231;28;20431;-66
2023/05/12 12:13:57;;;;;;;3.60;3.30;;;21.70;99.90;;;;;;5051147;28;20896;-67
2023/05/12 12:16:27;;;;;;;4.77;4.00;;;21.60;99.90;;;;;;5024811;28;20458;-65
2023/05/12 12:18:53;;;;;;;4.13;3.73;;;21.50;99.90;;;;;;5022330;28;20490;-68
2023/05/12 12:21:20;;;;;;;4.40;4.00;;;21.40;99.90;;;;;;5016104;28;20563;-66
2023/05/12 12:23:46;;;;;;;4.20;3.47;;;21.30;99.90;;;;;;5020471;28;21025;-65
2023/05/12 12:26:13;;;;;;;4.40;4.00;;;21.20;99.90;;;;;;5027372;28;20422;-65
2023/05/12 12:28:38;;;;;;;3.90;3.60;;;21.20;99.90;;;;;;5024214;28;20209;-64
2023/05/12 12:31:04;;;;;;;3.53;3.23;;;21.40;99.90;;;;;;5021209;28;20437;-65
2023/05/12 12:33:30;;;;;;;3.90;3.40;;;21.80;99.90;;;;;;5016460;28;20211;-65
2023/05/12 12:35:55;;;;;;;3.43;3.13;;;23.30;99.90;;;;;;5013854;28;20442;-65
2023/05/12 12:38:21;;;;;;;3.90;3.50;;;24.70;99.90;;;;;;5018148;28;20295;-65
2023/05/12 12:40:46;;;;;;;3.07;2.80;;;25.80;99.90;;;;;;5018287;28;20206;-66